SKVP/VUP METAR and TAF weather

Enter ICAO airport designator
Station Type Date Time Source
SKVP METAR 2020/04/05 23:00 UTC NOAA

SKVP 052300Z 04012KT 010V070 9999 SCT020 SCT090 34/22 A2977


Station Type Date Time Source
SKVP Decoded METAR 2020/04/05 23:00 UTC NOAA

Valledupar / Alfonso Lopez, Colombia (SKVP) 10-26N 073-15W
Apr 05, 2020 - 07:00 PM EDT / 2020.04.05 2300 UTC
Wind: from the NE (040 degrees) at 14 MPH (12 KT) (direction variable):0
Visibility: greater than 7 mile(s):0
Sky conditions: partly cloudy
Temperature: 93 F (34 C)
Heat index: 100.0 F (37.8 C):1
Dew Point: 71 F (22 C)
Relative Humidity: 49%
Pressure (altimeter): 29.77 in. Hg (1008 hPa)
ob: SKVP 052300Z 04012KT 010V070 9999 SCT020 SCT090 34/22 A2977
cycle: 23

Station Type Date Time Source
SKVP TAF UTC NOAA

Error!

Example: see airport list